Portland, Oregon
Traffic Map
Current Weather Conditions
Portland, Oregon
Overcast
Overcast

Feels Like: 2°
Wind Chill: Ceiling: 3500
Heat Index: Visibility: 10mi
Dew Point: Wind: 0mph
Humidity: 93% Direction: ° ()
Pressure: 30.23in Gusts: 0mph
Raw Report DataKPDX 230653Z 00000KT 10SM FEW025 BKN035 OVC050 02/01 A3023 RMK AO2 SLP236 T00220011
Traffic Incident Summary
Active as of:
Severity:
Category:
InformationThere was an issue retrieving the traffic information for this location. Please try a different location or try again shortly.
Advertisements
Track Severe Weather on mobile